< < Back
Terminal Aerodrome Forecast


Current Version              Previous Versions:   1  2  3  4  5  6  7  8  9  

Terminal Aerodrome Forecast

607
FTUS42 KFFC 041121
TAFFTY
TAF
KFTY 041121Z 0412/0512 00000KT P6SM SKC
     FM041700 17005KT P6SM FEW050
     FM050200 00000KT P6SM SKC=

Latest METAR

631
SAUS70 KWBC 041600 RRD
MTRFTY
METAR KFTY 041553Z 21005KT 10SM CLR 26/11 A3031 RMK AO2 SLP259
T02560111


USA.gov is the U.S. government's official web portal to all federal, state and local government web resources and services.